sensor_id;sensor_type;location;lat;lon;timestamp;P1;durP1;ratioP1;P2;durP2;ratioP2
15466;SDS011;7834;49.452;11.056;2023-04-24T00:00:55;4.95;;;3.10;;
15466;SDS011;7834;49.452;11.056;2023-04-24T00:03:22;6.05;;;3.22;;
15466;SDS011;7834;49.452;11.056;2023-04-24T00:05:48;4.07;;;3.20;;
15466;SDS011;7834;49.452;11.056;2023-04-24T00:08:16;3.58;;;3.20;;
15466;SDS011;7834;49.452;11.056;2023-04-24T00:10:42;5.20;;;3.33;;
15466;SDS011;7834;49.452;11.056;2023-04-24T00:13:08;5.57;;;3.20;;
15466;SDS011;7834;49.452;11.056;2023-04-24T00:15:34;4.47;;;3.20;;
15466;SDS011;7834;49.452;11.056;2023-04-24T00:18:00;5.28;;;3.08;;
15466;SDS011;7834;49.452;11.056;2023-04-24T00:20:27;5.35;;;3.00;;
15466;SDS011;7834;49.452;11.056;2023-04-24T00:23:00;4.47;;;2.77;;
15466;SDS011;7834;49.452;11.056;2023-04-24T00:25:26;4.47;;;3.10;;
15466;SDS011;7834;49.452;11.056;2023-04-24T00:27:52;4.55;;;3.10;;
15466;SDS011;7834;49.452;11.056;2023-04-24T00:30:18;3.45;;;3.00;;
15466;SDS011;7834;49.452;11.056;2023-04-24T00:32:44;4.32;;;2.80;;
15466;SDS011;7834;49.452;11.056;2023-04-24T00:35:10;3.63;;;2.70;;
15466;SDS011;7834;49.452;11.056;2023-04-24T00:37:36;2.72;;;2.45;;
15466;SDS011;7834;49.452;11.056;2023-04-24T00:40:02;3.67;;;2.75;;
15466;SDS011;7834;49.452;11.056;2023-04-24T00:42:29;3.90;;;2.90;;
15466;SDS011;7834;49.452;11.056;2023-04-24T00:44:55;5.70;;;3.88;;
15466;SDS011;7834;49.452;11.056;2023-04-24T00:47:22;4.75;;;3.05;;
15466;SDS011;7834;49.452;11.056;2023-04-24T00:49:48;4.57;;;2.90;;
15466;SDS011;7834;49.452;11.056;2023-04-24T00:52:14;3.50;;;2.47;;
15466;SDS011;7834;49.452;11.056;2023-04-24T00:54:42;3.13;;;2.80;;
15466;SDS011;7834;49.452;11.056;2023-04-24T00:57:09;3.92;;;2.78;;
15466;SDS011;7834;49.452;11.056;2023-04-24T00:59:35;4.15;;;2.80;;
15466;SDS011;7834;49.452;11.056;2023-04-24T01:02:01;4.15;;;2.67;;
15466;SDS011;7834;49.452;11.056;2023-04-24T01:04:28;2.72;;;2.40;;
15466;SDS011;7834;49.452;11.056;2023-04-24T01:06:54;2.92;;;2.10;;
15466;SDS011;7834;49.452;11.056;2023-04-24T01:09:21;3.00;;;2.15;;
15466;SDS011;7834;49.452;11.056;2023-04-24T01:11:47;2.95;;;2.20;;
15466;SDS011;7834;49.452;11.056;2023-04-24T01:14:13;2.83;;;2.25;;
15466;SDS011;7834;49.452;11.056;2023-04-24T01:16:39;2.63;;;2.27;;
15466;SDS011;7834;49.452;11.056;2023-04-24T01:19:06;2.42;;;2.17;;
15466;SDS011;7834;49.452;11.056;2023-04-24T01:21:34;2.83;;;2.10;;
15466;SDS011;7834;49.452;11.056;2023-04-24T01:24:02;2.10;;;1.75;;
15466;SDS011;7834;49.452;11.056;2023-04-24T01:26:28;2.20;;;1.90;;
15466;SDS011;7834;49.452;11.056;2023-04-24T01:28:54;2.10;;;1.90;;
15466;SDS011;7834;49.452;11.056;2023-04-24T01:31:20;2.80;;;2.03;;
15466;SDS011;7834;49.452;11.056;2023-04-24T01:33:46;2.40;;;1.55;;
15466;SDS011;7834;49.452;11.056;2023-04-24T01:36:13;2.05;;;1.80;;
15466;SDS011;7834;49.452;11.056;2023-04-24T01:38:39;2.97;;;1.67;;
15466;SDS011;7834;49.452;11.056;2023-04-24T01:41:05;2.40;;;1.50;;
15466;SDS011;7834;49.452;11.056;2023-04-24T01:43:31;2.80;;;1.70;;
15466;SDS011;7834;49.452;11.056;2023-04-24T01:45:57;1.70;;;1.60;;
15466;SDS011;7834;49.452;11.056;2023-04-24T01:48:23;1.80;;;1.60;;
15466;SDS011;7834;49.452;11.056;2023-04-24T01:50:49;4.10;;;1.80;;
15466;SDS011;7834;49.452;11.056;2023-04-24T01:53:15;1.95;;;1.50;;
15466;SDS011;7834;49.452;11.056;2023-04-24T01:55:41;1.95;;;1.50;;
15466;SDS011;7834;49.452;11.056;2023-04-24T01:58:07;3.28;;;1.83;;
15466;SDS011;7834;49.452;11.056;2023-04-24T02:00:33;2.03;;;1.48;;
15466;SDS011;7834;49.452;11.056;2023-04-24T02:02:59;2.10;;;1.73;;
15466;SDS011;7834;49.452;11.056;2023-04-24T02:05:27;1.65;;;1.52;;
15466;SDS011;7834;49.452;11.056;2023-04-24T02:07:53;2.67;;;1.50;;
15466;SDS011;7834;49.452;11.056;2023-04-24T02:10:20;2.47;;;1.50;;
15466;SDS011;7834;49.452;11.056;2023-04-24T02:12:46;1.83;;;1.30;;
15466;SDS011;7834;49.452;11.056;2023-04-24T02:15:12;1.67;;;1.40;;
15466;SDS011;7834;49.452;11.056;2023-04-24T02:17:38;2.42;;;1.40;;
15466;SDS011;7834;49.452;11.056;2023-04-24T02:20:05;1.63;;;1.40;;
15466;SDS011;7834;49.452;11.056;2023-04-24T02:22:31;1.95;;;1.40;;
15466;SDS011;7834;49.452;11.056;2023-04-24T02:24:57;2.28;;;1.50;;
15466;SDS011;7834;49.452;11.056;2023-04-24T02:27:23;2.40;;;1.50;;
15466;SDS011;7834;49.452;11.056;2023-04-24T02:29:49;2.25;;;1.60;;
15466;SDS011;7834;49.452;11.056;2023-04-24T02:32:15;3.28;;;1.52;;
15466;SDS011;7834;49.452;11.056;2023-04-24T02:34:41;2.15;;;1.50;;
15466;SDS011;7834;49.452;11.056;2023-04-24T02:37:07;3.20;;;1.90;;
15466;SDS011;7834;49.452;11.056;2023-04-24T02:39:33;2.00;;;1.63;;
15466;SDS011;7834;49.452;11.056;2023-04-24T02:41:59;2.95;;;1.73;;
15466;SDS011;7834;49.452;11.056;2023-04-24T02:44:29;2.20;;;1.58;;
15466;SDS011;7834;49.452;11.056;2023-04-24T02:46:55;2.25;;;1.70;;
15466;SDS011;7834;49.452;11.056;2023-04-24T02:49:21;2.03;;;1.52;;
15466;SDS011;7834;49.452;11.056;2023-04-24T02:51:47;2.63;;;1.60;;
15466;SDS011;7834;49.452;11.056;2023-04-24T02:54:13;2.73;;;1.70;;
15466;SDS011;7834;49.452;11.056;2023-04-24T02:56:39;1.85;;;1.75;;
15466;SDS011;7834;49.452;11.056;2023-04-24T02:59:05;2.33;;;1.73;;
15466;SDS011;7834;49.452;11.056;2023-04-24T03:01:31;2.25;;;1.90;;
15466;SDS011;7834;49.452;11.056;2023-04-24T03:03:57;3.57;;;1.80;;
15466;SDS011;7834;49.452;11.056;2023-04-24T03:06:23;2.65;;;1.80;;
15466;SDS011;7834;49.452;11.056;2023-04-24T03:08:49;2.23;;;1.87;;
15466;SDS011;7834;49.452;11.056;2023-04-24T03:11:15;4.80;;;1.90;;
15466;SDS011;7834;49.452;11.056;2023-04-24T03:13:41;2.40;;;1.73;;
15466;SDS011;7834;49.452;11.056;2023-04-24T03:16:07;2.00;;;1.80;;
15466;SDS011;7834;49.452;11.056;2023-04-24T03:18:33;2.90;;;1.90;;
15466;SDS011;7834;49.452;11.056;2023-04-24T03:21:00;1.92;;;1.70;;
15466;SDS011;7834;49.452;11.056;2023-04-24T03:23:26;2.28;;;1.85;;
15466;SDS011;7834;49.452;11.056;2023-04-24T03:25:52;2.97;;;1.90;;
15466;SDS011;7834;49.452;11.056;2023-04-24T03:28:19;2.10;;;1.90;;
15466;SDS011;7834;49.452;11.056;2023-04-24T03:30:45;2.85;;;1.90;;
15466;SDS011;7834;49.452;11.056;2023-04-24T03:33:11;3.27;;;2.10;;
15466;SDS011;7834;49.452;11.056;2023-04-24T03:35:37;2.97;;;1.92;;
15466;SDS011;7834;49.452;11.056;2023-04-24T03:38:03;2.92;;;2.05;;
15466;SDS011;7834;49.452;11.056;2023-04-24T03:40:30;3.33;;;1.92;;
15466;SDS011;7834;49.452;11.056;2023-04-24T03:42:58;2.25;;;1.85;;
15466;SDS011;7834;49.452;11.056;2023-04-24T03:45:24;2.42;;;1.98;;
15466;SDS011;7834;49.452;11.056;2023-04-24T03:47:50;2.17;;;1.80;;
15466;SDS011;7834;49.452;11.056;2023-04-24T03:50:16;2.00;;;1.77;;
15466;SDS011;7834;49.452;11.056;2023-04-24T03:52:42;2.50;;;1.90;;
15466;SDS011;7834;49.452;11.056;2023-04-24T03:55:08;2.80;;;1.92;;
15466;SDS011;7834;49.452;11.056;2023-04-24T03:57:38;2.80;;;2.00;;
15466;SDS011;7834;49.452;11.056;2023-04-24T04:00:04;3.33;;;2.13;;
15466;SDS011;7834;49.452;11.056;2023-04-24T04:02:30;3.30;;;2.20;;
15466;SDS011;7834;49.452;11.056;2023-04-24T04:04:56;4.75;;;2.30;;
15466;SDS011;7834;49.452;11.056;2023-04-24T04:07:22;2.80;;;2.50;;
15466;SDS011;7834;49.452;11.056;2023-04-24T04:09:48;2.90;;;2.30;;
15466;SDS011;7834;49.452;11.056;2023-04-24T04:12:14;3.67;;;2.47;;
15466;SDS011;7834;49.452;11.056;2023-04-24T04:14:40;4.32;;;2.63;;
15466;SDS011;7834;49.452;11.056;2023-04-24T04:17:06;3.47;;;2.70;;
15466;SDS011;7834;49.452;11.056;2023-04-24T04:19:32;2.65;;;2.38;;
15466;SDS011;7834;49.452;11.056;2023-04-24T04:21:59;3.55;;;2.67;;
15466;SDS011;7834;49.452;11.056;2023-04-24T04:24:25;3.28;;;2.55;;
15466;SDS011;7834;49.452;11.056;2023-04-24T04:26:51;4.50;;;2.38;;
15466;SDS011;7834;49.452;11.056;2023-04-24T04:29:17;4.93;;;2.47;;
15466;SDS011;7834;49.452;11.056;2023-04-24T04:31:44;4.05;;;2.80;;
15466;SDS011;7834;49.452;11.056;2023-04-24T04:34:10;3.45;;;2.58;;
15466;SDS011;7834;49.452;11.056;2023-04-24T04:36:37;4.07;;;2.60;;
15466;SDS011;7834;49.452;11.056;2023-04-24T04:39:05;5.07;;;3.07;;
15466;SDS011;7834;49.452;11.056;2023-04-24T04:41:31;3.28;;;2.88;;
15466;SDS011;7834;49.452;11.056;2023-04-24T04:43:57;4.13;;;3.30;;
15466;SDS011;7834;49.452;11.056;2023-04-24T04:46:23;4.97;;;3.80;;
15466;SDS011;7834;49.452;11.056;2023-04-24T04:48:52;6.15;;;5.00;;
15466;SDS011;7834;49.452;11.056;2023-04-24T04:51:18;7.90;;;5.35;;
15466;SDS011;7834;49.452;11.056;2023-04-24T04:53:44;7.70;;;5.27;;
15466;SDS011;7834;49.452;11.056;2023-04-24T04:56:10;6.47;;;4.90;;
15466;SDS011;7834;49.452;11.056;2023-04-24T04:58:36;7.03;;;4.93;;
15466;SDS011;7834;49.452;11.056;2023-04-24T05:01:02;5.75;;;4.35;;
15466;SDS011;7834;49.452;11.056;2023-04-24T05:03:28;5.47;;;4.55;;
15466;SDS011;7834;49.452;11.056;2023-04-24T05:05:54;8.13;;;4.05;;
15466;SDS011;7834;49.452;11.056;2023-04-24T05:08:20;6.07;;;3.90;;
15466;SDS011;7834;49.452;11.056;2023-04-24T05:10:46;5.53;;;3.65;;
15466;SDS011;7834;49.452;11.056;2023-04-24T05:13:12;3.88;;;3.20;;
15466;SDS011;7834;49.452;11.056;2023-04-24T05:15:38;4.18;;;2.97;;
15466;SDS011;7834;49.452;11.056;2023-04-24T05:18:04;6.97;;;3.08;;
15466;SDS011;7834;49.452;11.056;2023-04-24T05:20:30;3.93;;;2.80;;
15466;SDS011;7834;49.452;11.056;2023-04-24T05:22:56;4.18;;;2.78;;
15466;SDS011;7834;49.452;11.056;2023-04-24T05:25:22;3.25;;;2.95;;
15466;SDS011;7834;49.452;11.056;2023-04-24T05:27:48;4.78;;;2.60;;
15466;SDS011;7834;49.452;11.056;2023-04-24T05:30:14;5.30;;;2.78;;
15466;SDS011;7834;49.452;11.056;2023-04-24T05:32:41;4.47;;;2.85;;
15466;SDS011;7834;49.452;11.056;2023-04-24T05:35:07;5.67;;;3.03;;
15466;SDS011;7834;49.452;11.056;2023-04-24T05:37:33;4.70;;;2.90;;
15466;SDS011;7834;49.452;11.056;2023-04-24T05:39:59;4.60;;;3.08;;
15466;SDS011;7834;49.452;11.056;2023-04-24T05:42:25;4.63;;;2.80;;
15466;SDS011;7834;49.452;11.056;2023-04-24T05:44:51;4.70;;;2.90;;
15466;SDS011;7834;49.452;11.056;2023-04-24T05:47:19;4.72;;;3.00;;
15466;SDS011;7834;49.452;11.056;2023-04-24T05:49:47;3.63;;;2.90;;
15466;SDS011;7834;49.452;11.056;2023-04-24T05:52:13;4.03;;;3.30;;
15466;SDS011;7834;49.452;11.056;2023-04-24T05:54:39;5.35;;;3.08;;
15466;SDS011;7834;49.452;11.056;2023-04-24T05:57:05;5.93;;;3.00;;
15466;SDS011;7834;49.452;11.056;2023-04-24T05:59:35;3.50;;;2.70;;
15466;SDS011;7834;49.452;11.056;2023-04-24T06:02:01;5.25;;;2.90;;
15466;SDS011;7834;49.452;11.056;2023-04-24T06:04:27;3.47;;;2.90;;
15466;SDS011;7834;49.452;11.056;2023-04-24T06:06:53;5.90;;;2.83;;
15466;SDS011;7834;49.452;11.056;2023-04-24T06:09:23;3.70;;;2.90;;
15466;SDS011;7834;49.452;11.056;2023-04-24T06:11:49;6.30;;;2.83;;
15466;SDS011;7834;49.452;11.056;2023-04-24T06:14:19;4.80;;;2.95;;
15466;SDS011;7834;49.452;11.056;2023-04-24T06:16:45;5.30;;;2.90;;
15466;SDS011;7834;49.452;11.056;2023-04-24T06:19:11;4.40;;;2.75;;
15466;SDS011;7834;49.452;11.056;2023-04-24T06:21:37;4.30;;;3.03;;
15466;SDS011;7834;49.452;11.056;2023-04-24T06:24:03;4.13;;;2.60;;
15466;SDS011;7834;49.452;11.056;2023-04-24T06:26:29;5.28;;;2.85;;
15466;SDS011;7834;49.452;11.056;2023-04-24T06:28:56;4.32;;;3.10;;
15466;SDS011;7834;49.452;11.056;2023-04-24T06:31:23;4.85;;;3.00;;
15466;SDS011;7834;49.452;11.056;2023-04-24T06:33:49;4.68;;;2.60;;
15466;SDS011;7834;49.452;11.056;2023-04-24T06:36:15;4.38;;;2.70;;
15466;SDS011;7834;49.452;11.056;2023-04-24T06:38:42;6.13;;;2.70;;
15466;SDS011;7834;49.452;11.056;2023-04-24T06:41:09;3.83;;;2.30;;
15466;SDS011;7834;49.452;11.056;2023-04-24T06:43:35;5.40;;;2.60;;
15466;SDS011;7834;49.452;11.056;2023-04-24T06:46:01;4.70;;;2.40;;
15466;SDS011;7834;49.452;11.056;2023-04-24T06:48:28;4.00;;;2.22;;
15466;SDS011;7834;49.452;11.056;2023-04-24T06:50:54;5.25;;;2.58;;
15466;SDS011;7834;49.452;11.056;2023-04-24T06:53:20;6.43;;;2.60;;
15466;SDS011;7834;49.452;11.056;2023-04-24T06:55:46;5.03;;;2.10;;
15466;SDS011;7834;49.452;11.056;2023-04-24T06:58:13;3.88;;;1.70;;
15466;SDS011;7834;49.452;11.056;2023-04-24T07:00:40;4.45;;;2.10;;
15466;SDS011;7834;49.452;11.056;2023-04-24T07:03:06;2.90;;;1.50;;
15466;SDS011;7834;49.452;11.056;2023-04-24T07:05:32;3.17;;;1.58;;
15466;SDS011;7834;49.452;11.056;2023-04-24T07:08:02;3.00;;;1.50;;
15466;SDS011;7834;49.452;11.056;2023-04-24T07:10:28;3.75;;;1.50;;
15466;SDS011;7834;49.452;11.056;2023-04-24T07:12:55;2.15;;;1.33;;
15466;SDS011;7834;49.452;11.056;2023-04-24T07:15:21;2.65;;;1.40;;
15466;SDS011;7834;49.452;11.056;2023-04-24T07:17:48;3.92;;;1.50;;
15466;SDS011;7834;49.452;11.056;2023-04-24T07:20:15;3.22;;;1.92;;
15466;SDS011;7834;49.452;11.056;2023-04-24T07:22:41;4.55;;;1.60;;
15466;SDS011;7834;49.452;11.056;2023-04-24T07:25:07;2.08;;;1.77;;
15466;SDS011;7834;49.452;11.056;2023-04-24T07:27:33;3.00;;;1.50;;
15466;SDS011;7834;49.452;11.056;2023-04-24T07:30:00;2.05;;;1.58;;
15466;SDS011;7834;49.452;11.056;2023-04-24T07:32:26;2.08;;;1.70;;
15466;SDS011;7834;49.452;11.056;2023-04-24T07:34:52;1.50;;;1.40;;
15466;SDS011;7834;49.452;11.056;2023-04-24T07:37:18;4.10;;;1.90;;
15466;SDS011;7834;49.452;11.056;2023-04-24T07:39:45;2.33;;;1.73;;
15466;SDS011;7834;49.452;11.056;2023-04-24T07:42:11;1.95;;;1.65;;
15466;SDS011;7834;49.452;11.056;2023-04-24T07:44:37;2.17;;;1.80;;
15466;SDS011;7834;49.452;11.056;2023-04-24T07:47:03;2.22;;;1.70;;
15466;SDS011;7834;49.452;11.056;2023-04-24T07:49:29;2.38;;;1.70;;
15466;SDS011;7834;49.452;11.056;2023-04-24T07:51:56;2.72;;;1.70;;
15466;SDS011;7834;49.452;11.056;2023-04-24T07:54:22;2.90;;;1.77;;
15466;SDS011;7834;49.452;11.056;2023-04-24T07:56:48;3.38;;;1.80;;
15466;SDS011;7834;49.452;11.056;2023-04-24T07:59:14;1.90;;;1.80;;
15466;SDS011;7834;49.452;11.056;2023-04-24T08:01:40;2.25;;;1.95;;
15466;SDS011;7834;49.452;11.056;2023-04-24T08:04:06;2.00;;;1.77;;
15466;SDS011;7834;49.452;11.056;2023-04-24T08:06:32;3.13;;;2.00;;
15466;SDS011;7834;49.452;11.056;2023-04-24T08:08:58;3.33;;;2.40;;
15466;SDS011;7834;49.452;11.056;2023-04-24T08:11:24;2.77;;;2.00;;
15466;SDS011;7834;49.452;11.056;2023-04-24T08:13:50;2.25;;;1.80;;
15466;SDS011;7834;49.452;11.056;2023-04-24T08:16:16;3.25;;;2.20;;
15466;SDS011;7834;49.452;11.056;2023-04-24T08:18:42;2.70;;;2.00;;
15466;SDS011;7834;49.452;11.056;2023-04-24T08:21:08;2.97;;;2.10;;
15466;SDS011;7834;49.452;11.056;2023-04-24T08:23:36;2.95;;;2.30;;
15466;SDS011;7834;49.452;11.056;2023-04-24T08:26:02;2.50;;;2.30;;
15466;SDS011;7834;49.452;11.056;2023-04-24T08:28:28;2.50;;;2.30;;
15466;SDS011;7834;49.452;11.056;2023-04-24T08:30:54;3.33;;;2.40;;
15466;SDS011;7834;49.452;11.056;2023-04-24T08:33:21;2.88;;;2.30;;
15466;SDS011;7834;49.452;11.056;2023-04-24T08:35:47;3.72;;;2.65;;
15466;SDS011;7834;49.452;11.056;2023-04-24T08:38:13;3.70;;;2.90;;
15466;SDS011;7834;49.452;11.056;2023-04-24T08:40:39;3.45;;;2.60;;
15466;SDS011;7834;49.452;11.056;2023-04-24T08:43:05;4.50;;;2.88;;
15466;SDS011;7834;49.452;11.056;2023-04-24T08:45:32;4.40;;;2.70;;
15466;SDS011;7834;49.452;11.056;2023-04-24T08:47:58;3.80;;;2.65;;
15466;SDS011;7834;49.452;11.056;2023-04-24T08:50:25;4.32;;;2.80;;
15466;SDS011;7834;49.452;11.056;2023-04-24T08:52:51;5.40;;;2.67;;
15466;SDS011;7834;49.452;11.056;2023-04-24T08:55:19;3.40;;;2.63;;
15466;SDS011;7834;49.452;11.056;2023-04-24T08:57:46;4.03;;;2.50;;
15466;SDS011;7834;49.452;11.056;2023-04-24T09:00:15;6.83;;;2.73;;
15466;SDS011;7834;49.452;11.056;2023-04-24T09:02:42;4.25;;;3.53;;
15466;SDS011;7834;49.452;11.056;2023-04-24T09:05:09;3.00;;;2.40;;
15466;SDS011;7834;49.452;11.056;2023-04-24T09:07:35;3.70;;;2.78;;
15466;SDS011;7834;49.452;11.056;2023-04-24T09:10:04;3.22;;;2.70;;
15466;SDS011;7834;49.452;11.056;2023-04-24T09:12:30;3.70;;;2.60;;
15466;SDS011;7834;49.452;11.056;2023-04-24T09:14:56;3.33;;;2.70;;
15466;SDS011;7834;49.452;11.056;2023-04-24T09:17:23;3.40;;;2.30;;
15466;SDS011;7834;49.452;11.056;2023-04-24T09:19:52;3.17;;;2.65;;
15466;SDS011;7834;49.452;11.056;2023-04-24T09:22:18;3.00;;;2.47;;
15466;SDS011;7834;49.452;11.056;2023-04-24T09:24:45;2.80;;;2.60;;
15466;SDS011;7834;49.452;11.056;2023-04-24T09:27:11;2.95;;;2.25;;
15466;SDS011;7834;49.452;11.056;2023-04-24T09:30:00;3.55;;;2.80;;
15466;SDS011;7834;49.452;11.056;2023-04-24T09:32:26;8.38;;;5.13;;
15466;SDS011;7834;49.452;11.056;2023-04-24T09:35:05;2.65;;;2.17;;
15466;SDS011;7834;49.452;11.056;2023-04-24T09:37:35;2.65;;;2.15;;
15466;SDS011;7834;49.452;11.056;2023-04-24T09:40:14;3.53;;;2.40;;
15466;SDS011;7834;49.452;11.056;2023-04-24T09:42:56;3.88;;;2.25;;
15466;SDS011;7834;49.452;11.056;2023-04-24T09:45:28;3.25;;;2.17;;
15466;SDS011;7834;49.452;11.056;2023-04-24T09:48:00;2.35;;;2.05;;
15466;SDS011;7834;49.452;11.056;2023-04-24T09:50:26;2.55;;;1.80;;
15466;SDS011;7834;49.452;11.056;2023-04-24T09:52:56;3.28;;;1.63;;
15466;SDS011;7834;49.452;11.056;2023-04-24T09:55:24;2.83;;;1.85;;
15466;SDS011;7834;49.452;11.056;2023-04-24T09:57:55;1.85;;;1.70;;
15466;SDS011;7834;49.452;11.056;2023-04-24T10:00:21;3.10;;;1.60;;
15466;SDS011;7834;49.452;11.056;2023-04-24T10:02:54;2.47;;;1.83;;
15466;SDS011;7834;49.452;11.056;2023-04-24T10:05:27;7.85;;;1.80;;
15466;SDS011;7834;49.452;11.056;2023-04-24T10:07:57;1.70;;;1.60;;
15466;SDS011;7834;49.452;11.056;2023-04-24T10:10:23;3.20;;;1.53;;
15466;SDS011;7834;49.452;11.056;2023-04-24T10:12:50;2.75;;;1.50;;
15466;SDS011;7834;49.452;11.056;2023-04-24T10:15:16;2.70;;;1.60;;
15466;SDS011;7834;49.452;11.056;2023-04-24T10:17:46;4.47;;;1.47;;
15466;SDS011;7834;49.452;11.056;2023-04-24T10:20:17;3.20;;;1.60;;
15466;SDS011;7834;49.452;11.056;2023-04-24T10:22:44;2.65;;;1.63;;
15466;SDS011;7834;49.452;11.056;2023-04-24T10:25:13;3.27;;;1.60;;
15466;SDS011;7834;49.452;11.056;2023-04-24T10:27:39;1.80;;;1.30;;
15466;SDS011;7834;49.452;11.056;2023-04-24T10:30:06;2.95;;;1.40;;
15466;SDS011;7834;49.452;11.056;2023-04-24T10:32:32;2.20;;;1.40;;
15466;SDS011;7834;49.452;11.056;2023-04-24T10:34:58;2.35;;;1.40;;
15466;SDS011;7834;49.452;11.056;2023-04-24T10:37:24;1.60;;;1.30;;
15466;SDS011;7834;49.452;11.056;2023-04-24T10:39:51;3.92;;;2.10;;
15466;SDS011;7834;49.452;11.056;2023-04-24T10:42:19;2.03;;;1.20;;
15466;SDS011;7834;49.452;11.056;2023-04-24T10:44:47;1.52;;;1.42;;
15466;SDS011;7834;49.452;11.056;2023-04-24T10:47:14;2.67;;;1.50;;
15466;SDS011;7834;49.452;11.056;2023-04-24T10:49:40;2.60;;;1.30;;
15466;SDS011;7834;49.452;11.056;2023-04-24T10:52:06;1.58;;;1.27;;
15466;SDS011;7834;49.452;11.056;2023-04-24T10:54:35;1.40;;;1.30;;
15466;SDS011;7834;49.452;11.056;2023-04-24T10:59:50;1.58;;;1.30;;
15466;SDS011;7834;49.452;11.056;2023-04-24T11:02:16;3.13;;;1.30;;
15466;SDS011;7834;49.452;11.056;2023-04-24T11:04:43;2.20;;;1.23;;
15466;SDS011;7834;49.452;11.056;2023-04-24T11:07:10;2.13;;;1.20;;
15466;SDS011;7834;49.452;11.056;2023-04-24T11:09:36;2.05;;;1.20;;
15466;SDS011;7834;49.452;11.056;2023-04-24T11:12:11;1.30;;;1.17;;
15466;SDS011;7834;49.452;11.056;2023-04-24T11:17:34;2.35;;;1.30;;
15466;SDS011;7834;49.452;11.056;2023-04-24T11:20:05;2.13;;;1.50;;
15466;SDS011;7834;49.452;11.056;2023-04-24T11:22:36;1.55;;;1.30;;
15466;SDS011;7834;49.452;11.056;2023-04-24T11:25:03;1.70;;;1.30;;
15466;SDS011;7834;49.452;11.056;2023-04-24T11:27:30;1.90;;;1.60;;
15466;SDS011;7834;49.452;11.056;2023-04-24T11:34:49;2.00;;;1.90;;
15466;SDS011;7834;49.452;11.056;2023-04-24T11:37:16;3.28;;;2.00;;
15466;SDS011;7834;49.452;11.056;2023-04-24T11:39:42;3.33;;;1.95;;
15466;SDS011;7834;49.452;11.056;2023-04-24T11:42:13;2.13;;;1.98;;
15466;SDS011;7834;49.452;11.056;2023-04-24T11:44:40;2.92;;;1.80;;
15466;SDS011;7834;49.452;11.056;2023-04-24T11:47:07;2.97;;;2.10;;
15466;SDS011;7834;49.452;11.056;2023-04-24T11:49:36;2.20;;;1.70;;
15466;SDS011;7834;49.452;11.056;2023-04-24T11:52:02;4.25;;;2.10;;
15466;SDS011;7834;49.452;11.056;2023-04-24T11:54:28;3.80;;;2.20;;
15466;SDS011;7834;49.452;11.056;2023-04-24T11:56:55;7.50;;;2.10;;
15466;SDS011;7834;49.452;11.056;2023-04-24T11:59:21;1.90;;;1.52;;
15466;SDS011;7834;49.452;11.056;2023-04-24T12:01:48;1.88;;;1.60;;
15466;SDS011;7834;49.452;11.056;2023-04-24T12:04:15;3.40;;;1.90;;
15466;SDS011;7834;49.452;11.056;2023-04-24T12:07:00;2.40;;;1.73;;
15466;SDS011;7834;49.452;11.056;2023-04-24T12:09:26;3.60;;;2.38;;
15466;SDS011;7834;49.452;11.056;2023-04-24T12:11:53;2.42;;;2.03;;
15466;SDS011;7834;49.452;11.056;2023-04-24T12:14:21;3.53;;;2.50;;
15466;SDS011;7834;49.452;11.056;2023-04-24T12:16:48;2.55;;;2.10;;
15466;SDS011;7834;49.452;11.056;2023-04-24T12:19:21;3.95;;;2.20;;
15466;SDS011;7834;49.452;11.056;2023-04-24T12:22:03;2.53;;;2.08;;
15466;SDS011;7834;49.452;11.056;2023-04-24T12:24:30;2.33;;;2.13;;
15466;SDS011;7834;49.452;11.056;2023-04-24T12:26:56;2.70;;;2.13;;
15466;SDS011;7834;49.452;11.056;2023-04-24T12:29:23;2.60;;;2.40;;
15466;SDS011;7834;49.452;11.056;2023-04-24T12:31:49;2.45;;;1.80;;
15466;SDS011;7834;49.452;11.056;2023-04-24T12:34:22;2.25;;;1.90;;
15466;SDS011;7834;49.452;11.056;2023-04-24T12:36:49;2.92;;;1.90;;
15466;SDS011;7834;49.452;11.056;2023-04-24T12:39:19;2.45;;;1.80;;
15466;SDS011;7834;49.452;11.056;2023-04-24T12:41:55;3.80;;;1.70;;
15466;SDS011;7834;49.452;11.056;2023-04-24T12:44:31;2.33;;;1.63;;
15466;SDS011;7834;49.452;11.056;2023-04-24T12:46:59;2.67;;;1.83;;
15466;SDS011;7834;49.452;11.056;2023-04-24T12:49:27;2.10;;;1.70;;
15466;SDS011;7834;49.452;11.056;2023-04-24T12:51:54;2.93;;;1.60;;
15466;SDS011;7834;49.452;11.056;2023-04-24T12:54:20;3.17;;;1.88;;
15466;SDS011;7834;49.452;11.056;2023-04-24T12:56:46;2.85;;;2.08;;
15466;SDS011;7834;49.452;11.056;2023-04-24T12:59:12;2.97;;;1.90;;
15466;SDS011;7834;49.452;11.056;2023-04-24T13:01:38;1.97;;;1.80;;
15466;SDS011;7834;49.452;11.056;2023-04-24T13:04:04;3.28;;;1.88;;
15466;SDS011;7834;49.452;11.056;2023-04-24T13:06:30;2.70;;;1.67;;
15466;SDS011;7834;49.452;11.056;2023-04-24T13:08:57;2.22;;;2.03;;
15466;SDS011;7834;49.452;11.056;2023-04-24T13:11:23;2.78;;;1.67;;
15466;SDS011;7834;49.452;11.056;2023-04-24T13:13:49;2.20;;;1.70;;
15466;SDS011;7834;49.452;11.056;2023-04-24T13:16:16;2.33;;;2.13;;
15466;SDS011;7834;49.452;11.056;2023-04-24T13:18:42;1.70;;;1.60;;
15466;SDS011;7834;49.452;11.056;2023-04-24T13:21:08;3.30;;;1.70;;
15466;SDS011;7834;49.452;11.056;2023-04-24T13:23:34;1.83;;;1.70;;
15466;SDS011;7834;49.452;11.056;2023-04-24T13:26:00;2.90;;;2.03;;
15466;SDS011;7834;49.452;11.056;2023-04-24T13:28:27;2.00;;;1.80;;
15466;SDS011;7834;49.452;11.056;2023-04-24T13:30:54;2.85;;;1.98;;
15466;SDS011;7834;49.452;11.056;2023-04-24T13:33:20;2.40;;;1.92;;
15466;SDS011;7834;49.452;11.056;2023-04-24T13:35:46;1.90;;;1.60;;
15466;SDS011;7834;49.452;11.056;2023-04-24T13:38:12;3.22;;;2.10;;
15466;SDS011;7834;49.452;11.056;2023-04-24T13:40:38;2.42;;;1.90;;
15466;SDS011;7834;49.452;11.056;2023-04-24T13:43:04;3.63;;;2.00;;
15466;SDS011;7834;49.452;11.056;2023-04-24T13:45:31;3.10;;;2.25;;
15466;SDS011;7834;49.452;11.056;2023-04-24T13:47:57;2.25;;;2.05;;
15466;SDS011;7834;49.452;11.056;2023-04-24T13:50:23;3.03;;;2.05;;
15466;SDS011;7834;49.452;11.056;2023-04-24T13:52:49;2.17;;;1.90;;
15466;SDS011;7834;49.452;11.056;2023-04-24T13:55:15;2.83;;;2.38;;
15466;SDS011;7834;49.452;11.056;2023-04-24T13:57:41;5.13;;;2.67;;
15466;SDS011;7834;49.452;11.056;2023-04-24T14:00:07;3.67;;;2.47;;
15466;SDS011;7834;49.452;11.056;2023-04-24T14:02:35;2.90;;;2.58;;
15466;SDS011;7834;49.452;11.056;2023-04-24T14:05:01;3.73;;;2.47;;
15466;SDS011;7834;49.452;11.056;2023-04-24T14:07:28;3.08;;;2.47;;
15466;SDS011;7834;49.452;11.056;2023-04-24T14:09:55;2.50;;;2.30;;
15466;SDS011;7834;49.452;11.056;2023-04-24T14:12:21;2.77;;;2.40;;
15466;SDS011;7834;49.452;11.056;2023-04-24T14:14:47;2.40;;;2.20;;
15466;SDS011;7834;49.452;11.056;2023-04-24T14:17:14;2.60;;;2.40;;
15466;SDS011;7834;49.452;11.056;2023-04-24T14:19:40;2.58;;;2.30;;
15466;SDS011;7834;49.452;11.056;2023-04-24T14:22:06;2.65;;;2.40;;
15466;SDS011;7834;49.452;11.056;2023-04-24T14:24:32;2.75;;;2.53;;
15466;SDS011;7834;49.452;11.056;2023-04-24T14:26:58;3.40;;;2.50;;
15466;SDS011;7834;49.452;11.056;2023-04-24T14:29:25;2.78;;;2.50;;
15466;SDS011;7834;49.452;11.056;2023-04-24T14:31:51;3.70;;;2.50;;
15466;SDS011;7834;49.452;11.056;2023-04-24T14:34:17;3.30;;;2.45;;
15466;SDS011;7834;49.452;11.056;2023-04-24T14:36:43;2.72;;;2.25;;
15466;SDS011;7834;49.452;11.056;2023-04-24T14:39:09;3.20;;;2.28;;
15466;SDS011;7834;49.452;11.056;2023-04-24T14:41:35;2.50;;;2.30;;
15466;SDS011;7834;49.452;11.056;2023-04-24T14:44:03;2.97;;;2.30;;
15466;SDS011;7834;49.452;11.056;2023-04-24T14:46:29;2.23;;;1.90;;
15466;SDS011;7834;49.452;11.056;2023-04-24T14:48:56;4.55;;;1.92;;
15466;SDS011;7834;49.452;11.056;2023-04-24T14:51:22;4.70;;;2.67;;
15466;SDS011;7834;49.452;11.056;2023-04-24T14:53:48;2.60;;;2.30;;
15466;SDS011;7834;49.452;11.056;2023-04-24T14:56:14;3.30;;;2.38;;